createdAt,value
2023-04-13T00:01:40.801Z,9.65
2023-04-13T00:04:26.822Z,7.70
2023-04-13T00:07:14.914Z,8.85
2023-04-13T00:10:03.370Z,10.15
2023-04-13T00:12:49.210Z,11.25
2023-04-13T00:15:39.244Z,11.68
2023-04-13T00:18:24.186Z,8.77
2023-04-13T00:21:09.700Z,13.13
2023-04-13T00:23:54.914Z,9.48
2023-04-13T00:26:40.233Z,13.45
2023-04-13T00:29:25.539Z,9.55
2023-04-13T00:32:10.915Z,11.27
2023-04-13T00:34:56.305Z,11.35
2023-04-13T00:37:43.128Z,8.57
2023-04-13T00:40:30.279Z,13.70
2023-04-13T00:43:16.237Z,12.68
2023-04-13T00:46:01.848Z,15.35
2023-04-13T00:48:48.424Z,11.02
2023-04-13T00:51:34.353Z,12.13
2023-04-13T00:54:19.548Z,13.57
2023-04-13T00:57:05.573Z,15.57
2023-04-13T00:59:52.851Z,16.85
2023-04-13T01:02:42.672Z,12.90
2023-04-13T01:05:35.423Z,17.60
2023-04-13T01:08:36.157Z,18.13
2023-04-13T01:11:54.189Z,20.33
2023-04-13T01:14:56.126Z,20.55
2023-04-13T01:17:45.066Z,21.88
2023-04-13T01:20:31.918Z,19.17
2023-04-13T01:23:29.732Z,23.90
2023-04-13T01:26:17.272Z,16.17
2023-04-13T01:29:02.756Z,15.35
2023-04-13T01:31:49.383Z,17.85
2023-04-13T01:34:34.970Z,14.95
2023-04-13T01:37:20.929Z,16.63
2023-04-13T01:40:10.009Z,13.30
2023-04-13T01:42:56.128Z,16.55
2023-04-13T01:45:49.687Z,15.32
2023-04-13T01:48:40.475Z,15.88
2023-04-13T01:51:32.264Z,13.55
2023-04-13T01:54:25.754Z,12.43
2023-04-13T01:57:12.798Z,10.70
2023-04-13T01:59:58.797Z,10.30
2023-04-13T02:02:45.341Z,13.13
2023-04-13T02:05:32.182Z,11.80
2023-04-13T02:08:20.749Z,12.45
2023-04-13T02:13:53.583Z,23.17
2023-04-13T02:16:39.083Z,25.15
2023-04-13T02:19:24.896Z,23.73
2023-04-13T02:22:10.182Z,22.52
2023-04-13T02:24:56.698Z,22.05
2023-04-13T02:27:42.228Z,18.83
2023-04-13T02:30:28.126Z,22.25
2023-04-13T02:33:13.509Z,18.40
2023-04-13T02:35:59.425Z,24.33
2023-04-13T02:38:44.918Z,23.13
2023-04-13T02:41:30.215Z,14.98
2023-04-13T02:44:15.884Z,16.70
2023-04-13T02:47:01.474Z,18.92
2023-04-13T02:49:46.984Z,18.73
2023-04-13T02:52:32.024Z,14.68
2023-04-13T02:55:18.062Z,13.70
2023-04-13T02:58:04.773Z,14.35
2023-04-13T03:00:50.584Z,13.80
2023-04-13T03:03:35.830Z,12.88
2023-04-13T03:06:24.190Z,10.55
2023-04-13T03:09:10.080Z,10.82
2023-04-13T03:11:56.577Z,11.40
2023-04-13T03:14:41.661Z,11.63
2023-04-13T03:17:28.324Z,11.13
2023-04-13T03:20:15.442Z,12.25
2023-04-13T03:23:01.953Z,14.68
2023-04-13T03:25:47.260Z,11.32
2023-04-13T03:28:32.588Z,12.10
2023-04-13T03:31:18.136Z,12.60
2023-04-13T03:34:03.282Z,10.82
2023-04-13T03:36:49.102Z,8.70
2023-04-13T03:39:34.425Z,11.27
2023-04-13T03:42:19.601Z,13.35
2023-04-13T03:45:06.650Z,13.40
2023-04-13T03:47:52.454Z,13.77
2023-04-13T03:50:37.632Z,14.95
2023-04-13T03:53:23.120Z,19.92
2023-04-13T03:56:08.738Z,15.63
2023-04-13T03:58:56.989Z,15.63
2023-04-13T04:01:42.097Z,14.73
2023-04-13T04:04:27.649Z,13.98
2023-04-13T04:07:13.407Z,14.40
2023-04-13T04:09:58.708Z,12.65
2023-04-13T04:12:44.124Z,13.90
2023-04-13T04:15:29.370Z,12.27
2023-04-13T04:18:14.702Z,12.25
2023-04-13T04:21:02.950Z,10.45
2023-04-13T04:23:48.511Z,15.95
2023-04-13T04:26:33.491Z,10.77
2023-04-13T04:29:36.860Z,10.95
2023-04-13T04:32:24.099Z,9.75
2023-04-13T04:35:12.160Z,12.25
2023-04-13T04:37:58.081Z,10.82
2023-04-13T04:40:45.217Z,11.50
2023-04-13T04:43:30.506Z,13.50
2023-04-13T04:46:17.039Z,14.23
2023-04-13T04:49:02.997Z,17.25
2023-04-13T04:51:49.054Z,18.08
2023-04-13T04:54:34.355Z,17.63
2023-04-13T04:57:20.684Z,20.27
2023-04-13T05:00:18.280Z,13.90
2023-04-13T05:03:03.350Z,18.40
2023-04-13T05:05:48.678Z,14.00
2023-04-13T05:08:34.616Z,19.88
2023-04-13T05:11:20.667Z,13.77
2023-04-13T05:14:05.720Z,13.93
2023-04-13T05:16:51.515Z,10.63
2023-04-13T05:19:38.659Z,13.20
2023-04-13T05:22:24.636Z,16.05
2023-04-13T05:25:10.535Z,14.85
2023-04-13T05:27:56.307Z,9.20
2023-04-13T05:30:41.546Z,9.15
2023-04-13T05:33:26.836Z,11.57
2023-04-13T05:36:11.911Z,13.68
2023-04-13T05:38:58.102Z,14.02
2023-04-13T05:41:43.422Z,16.52
2023-04-13T05:44:28.661Z,15.38
2023-04-13T05:47:13.550Z,21.10
2023-04-13T05:49:58.776Z,14.68
2023-04-13T05:52:44.139Z,16.05
2023-04-13T05:55:29.906Z,16.35
2023-04-13T05:58:15.630Z,16.65
2023-04-13T06:01:01.744Z,16.17
2023-04-13T06:03:47.671Z,14.73
2023-04-13T06:06:33.425Z,13.02
2023-04-13T06:09:19.205Z,14.95
2023-04-13T06:12:04.419Z,15.85
2023-04-13T06:14:49.868Z,14.65
2023-04-13T06:17:35.824Z,18.55
2023-04-13T06:20:21.708Z,16.77
2023-04-13T06:23:07.589Z,17.85
2023-04-13T06:25:52.808Z,16.25
2023-04-13T06:28:38.025Z,19.35
2023-04-13T06:31:27.454Z,16.75
2023-04-13T06:34:13.800Z,16.13
2023-04-13T06:36:59.433Z,15.02
2023-04-13T06:39:44.347Z,15.35
2023-04-13T06:42:29.674Z,13.27
2023-04-13T06:45:14.997Z,14.38
2023-04-13T06:48:03.279Z,15.73
2023-04-13T06:50:48.719Z,15.68
2023-04-13T06:53:34.149Z,12.60
2023-04-13T06:56:19.396Z,14.93
2023-04-13T06:59:05.122Z,15.02
2023-04-13T07:01:51.233Z,15.80
2023-04-13T07:04:37.666Z,17.73
2023-04-13T07:07:23.309Z,18.92
2023-04-13T07:10:09.304Z,16.23
2023-04-13T07:12:54.698Z,21.08
2023-04-13T07:15:39.862Z,38.70
2023-04-13T07:18:25.450Z,30.02
2023-04-13T07:21:11.028Z,22.50
2023-04-13T07:23:56.224Z,19.92
2023-04-13T07:26:41.865Z,15.63
2023-04-13T07:29:27.154Z,15.43
2023-04-13T07:32:12.486Z,18.83
2023-04-13T07:35:01.960Z,16.38
2023-04-13T07:37:51.451Z,15.15
2023-04-13T07:40:37.593Z,14.43
2023-04-13T07:43:26.354Z,17.52
2023-04-13T07:48:57.886Z,18.40
2023-04-13T07:51:43.062Z,14.90
2023-04-13T07:54:28.259Z,13.40
2023-04-13T07:57:13.611Z,14.02
2023-04-13T07:59:58.916Z,16.55
2023-04-13T08:02:44.461Z,18.55
2023-04-13T08:05:29.621Z,23.02
2023-04-13T08:08:15.065Z,24.85
2023-04-13T08:11:01.403Z,32.88
2023-04-13T08:13:46.496Z,27.85
2023-04-13T08:16:34.452Z,23.52
2023-04-13T08:19:19.774Z,20.25
2023-04-13T08:22:05.266Z,15.88
2023-04-13T08:24:50.362Z,14.98
2023-04-13T08:27:35.858Z,15.18
2023-04-13T08:30:21.248Z,12.07
2023-04-13T08:33:06.352Z,11.02
2023-04-13T08:35:52.016Z,11.70
2023-04-13T08:38:37.145Z,10.05
2023-04-13T08:41:23.135Z,10.98
2023-04-13T08:44:08.705Z,12.07
2023-04-13T08:46:54.301Z,16.55
2023-04-13T08:49:40.701Z,13.43
2023-04-13T08:52:27.573Z,11.73
2023-04-13T08:55:15.682Z,14.93
2023-04-13T08:58:03.839Z,19.17
2023-04-13T09:00:50.291Z,14.57
2023-04-13T09:03:43.951Z,14.60
2023-04-13T09:06:36.078Z,16.90
2023-04-13T09:09:21.572Z,13.63
2023-04-13T09:12:06.713Z,20.38
2023-04-13T09:14:52.545Z,16.05
2023-04-13T09:17:38.320Z,19.10
2023-04-13T09:20:23.890Z,13.52
2023-04-13T09:23:14.854Z,47.25
2023-04-13T09:26:06.499Z,32.00
2023-04-13T09:28:56.107Z,9.73
2023-04-13T09:31:43.682Z,11.70
2023-04-13T09:34:30.451Z,10.75
2023-04-13T09:37:15.974Z,9.70
2023-04-13T09:40:15.216Z,9.55
2023-04-13T09:43:02.227Z,16.77
2023-04-13T09:45:48.359Z,14.35
2023-04-13T09:48:33.419Z,13.88
2023-04-13T09:51:19.004Z,17.48
2023-04-13T09:54:05.878Z,18.15
2023-04-13T09:56:52.909Z,15.05
2023-04-13T09:59:38.509Z,9.60
2023-04-13T10:02:24.352Z,10.15
2023-04-13T10:05:10.322Z,10.57
2023-04-13T10:07:56.436Z,10.98
2023-04-13T10:10:41.840Z,11.57
2023-04-13T10:13:37.877Z,10.98
2023-04-13T10:16:26.277Z,9.27
2023-04-13T10:19:16.028Z,9.30
2023-04-13T10:22:04.012Z,11.60
2023-04-13T10:24:51.253Z,9.05
2023-04-13T10:27:36.619Z,9.98
2023-04-13T10:30:22.838Z,14.32
2023-04-13T10:33:10.786Z,11.40
2023-04-13T10:36:00.124Z,13.73
2023-04-13T10:38:46.905Z,11.43
2023-04-13T10:41:32.475Z,16.10
2023-04-13T10:44:17.812Z,13.68
2023-04-13T10:47:06.171Z,17.88
2023-04-13T10:49:52.937Z,12.55
2023-04-13T10:52:38.057Z,12.32
2023-04-13T10:55:25.479Z,15.18
2023-04-13T10:58:17.206Z,14.23
2023-04-13T11:01:03.880Z,11.90
2023-04-13T11:04:03.704Z,21.08
2023-04-13T11:06:51.353Z,10.30
2023-04-13T11:09:36.851Z,13.65
2023-04-13T11:12:21.819Z,15.15
2023-04-13T11:15:08.701Z,10.35
2023-04-13T11:18:02.221Z,19.17
2023-04-13T11:20:47.450Z,12.35
2023-04-13T11:23:34.626Z,11.70
2023-04-13T11:26:34.809Z,14.13
2023-04-13T11:29:23.347Z,11.30
2023-04-13T11:32:19.078Z,14.82
2023-04-13T11:35:13.857Z,13.55
2023-04-13T11:37:59.664Z,12.82
2023-04-13T11:40:45.558Z,9.82
2023-04-13T11:43:31.049Z,12.70
2023-04-13T11:46:25.267Z,9.40
2023-04-13T11:49:11.419Z,13.85
2023-04-13T11:51:56.754Z,9.00
2023-04-13T11:54:44.723Z,14.43
2023-04-13T11:57:29.861Z,13.98
2023-04-13T12:00:24.568Z,14.60
2023-04-13T12:06:08.198Z,8.48
2023-04-13T12:09:09.003Z,10.25
2023-04-13T12:12:20.432Z,8.85
2023-04-13T12:18:02.644Z,10.10
2023-04-13T12:20:54.784Z,13.15
2023-04-13T12:23:39.977Z,7.15
2023-04-13T12:27:17.130Z,9.45
2023-04-13T12:29:46.474Z,5.85
2023-04-13T12:32:32.087Z,6.38
2023-04-13T12:35:19.433Z,10.82
2023-04-13T12:38:05.191Z,8.50
2023-04-13T12:40:58.351Z,7.03
2023-04-13T12:43:43.368Z,5.53
2023-04-13T12:46:29.103Z,5.45
2023-04-13T12:49:14.525Z,6.43
2023-04-13T12:51:59.776Z,11.50
2023-04-13T12:54:45.036Z,6.47
2023-04-13T12:57:30.383Z,9.50
2023-04-13T13:00:17.431Z,6.82
2023-04-13T13:03:13.688Z,8.43
2023-04-13T13:06:00.349Z,8.80
2023-04-13T13:08:46.036Z,7.88
2023-04-13T13:11:31.574Z,5.97
2023-04-13T13:14:16.664Z,8.65
2023-04-13T13:17:03.778Z,7.95
2023-04-13T13:19:48.950Z,8.80
2023-04-13T13:22:34.800Z,5.70
2023-04-13T13:25:20.416Z,6.32
2023-04-13T13:28:13.805Z,4.47
2023-04-13T13:31:00.625Z,22.50
2023-04-13T13:33:45.998Z,10.70
2023-04-13T13:36:31.252Z,9.32
2023-04-13T13:39:18.398Z,11.65
2023-04-13T13:42:03.597Z,7.15
2023-04-13T13:44:49.425Z,11.32
2023-04-13T13:47:35.519Z,5.93
2023-04-13T13:50:21.899Z,7.20
2023-04-13T13:53:08.856Z,12.02
2023-04-13T13:55:54.386Z,8.10
2023-04-13T13:58:39.543Z,11.30
2023-04-13T14:01:25.224Z,5.78
2023-04-13T14:04:11.628Z,7.63
2023-04-13T14:06:57.240Z,11.05
2023-04-13T14:09:42.231Z,11.27
2023-04-13T14:12:27.677Z,5.95
2023-04-13T14:15:13.693Z,8.07
2023-04-13T14:18:09.844Z,7.15
2023-04-13T14:20:59.674Z,10.05
2023-04-13T14:23:45.248Z,12.40
2023-04-13T14:26:30.745Z,8.35
2023-04-13T14:29:15.888Z,6.75
2023-04-13T14:32:01.173Z,10.48
2023-04-13T14:34:47.753Z,7.88
2023-04-13T14:37:32.774Z,27.48
2023-04-13T14:40:21.760Z,8.93
2023-04-13T14:43:07.775Z,8.70
2023-04-13T14:45:55.116Z,7.63
2023-04-13T14:48:40.455Z,8.43
2023-04-13T14:51:25.950Z,23.35
2023-04-13T14:54:11.012Z,19.40
2023-04-13T14:56:56.351Z,24.95
2023-04-13T14:59:41.400Z,16.58
2023-04-13T15:02:28.124Z,8.80
2023-04-13T15:05:13.860Z,12.05
2023-04-13T15:07:59.225Z,9.60
2023-04-13T15:10:44.405Z,7.88
2023-04-13T15:13:29.351Z,6.82
2023-04-13T15:16:14.686Z,9.60
2023-04-13T15:19:00.227Z,8.00
2023-04-13T15:21:45.512Z,6.55
2023-04-13T15:24:31.334Z,6.97
2023-04-13T15:27:16.247Z,7.45
2023-04-13T15:30:03.302Z,16.23
2023-04-13T15:32:48.845Z,12.95
2023-04-13T15:35:35.502Z,11.52
2023-04-13T15:38:20.930Z,7.93
2023-04-13T15:41:09.889Z,10.02
2023-04-13T15:43:56.311Z,12.40
2023-04-13T15:46:41.609Z,9.95
2023-04-13T15:49:26.853Z,8.45
2023-04-13T15:52:11.983Z,5.82
2023-04-13T15:54:57.381Z,10.35
2023-04-13T15:57:42.330Z,9.07
2023-04-13T16:00:28.050Z,13.82
2023-04-13T16:03:13.560Z,7.72
2023-04-13T16:05:58.876Z,11.52
2023-04-13T16:08:43.949Z,11.63
2023-04-13T16:11:31.708Z,9.75
2023-04-13T16:14:17.506Z,12.80
2023-04-13T16:17:02.710Z,7.95
2023-04-13T16:19:50.653Z,9.20
2023-04-13T16:22:37.488Z,17.92
2023-04-13T16:25:22.771Z,9.52
2023-04-13T16:28:08.102Z,5.43
2023-04-13T16:30:53.846Z,9.18
2023-04-13T16:33:39.248Z,4.95
2023-04-13T16:36:25.023Z,16.00
2023-04-13T16:39:12.020Z,8.65
2023-04-13T16:41:58.216Z,6.82
2023-04-13T16:44:43.949Z,6.93
2023-04-13T16:47:30.187Z,5.88
2023-04-13T16:50:15.602Z,8.20
2023-04-13T16:53:00.864Z,4.43
2023-04-13T16:55:50.497Z,3.30
2023-04-13T16:58:35.968Z,6.05
2023-04-13T17:01:21.381Z,6.47
2023-04-13T17:04:06.680Z,6.22
2023-04-13T17:06:52.162Z,5.82
2023-04-13T17:09:37.541Z,7.53
2023-04-13T17:12:23.043Z,6.40
2023-04-13T17:15:09.639Z,6.53
2023-04-13T17:17:55.111Z,5.57
2023-04-13T17:20:40.814Z,9.85
2023-04-13T17:23:26.120Z,5.20
2023-04-13T17:26:11.089Z,9.50
2023-04-13T17:28:56.376Z,3.75
2023-04-13T17:31:41.640Z,9.20
2023-04-13T17:34:27.120Z,6.00
2023-04-13T17:37:12.192Z,6.05
2023-04-13T17:39:57.789Z,7.15
2023-04-13T17:42:42.993Z,7.32
2023-04-13T17:45:28.586Z,5.82
2023-04-13T17:48:14.007Z,6.90
2023-04-13T17:50:58.877Z,8.50
2023-04-13T17:53:44.218Z,4.93
2023-04-13T17:56:29.431Z,7.55
2023-04-13T17:59:16.008Z,6.35
2023-04-13T18:02:01.352Z,8.80
2023-04-13T18:04:47.934Z,11.50
2023-04-13T18:07:33.353Z,12.27
2023-04-13T18:10:18.848Z,15.88
2023-04-13T18:13:04.124Z,15.00
2023-04-13T18:15:50.341Z,16.05
2023-04-13T18:18:35.652Z,33.58
2023-04-13T18:21:20.824Z,29.10
2023-04-13T18:24:06.533Z,30.80
2023-04-13T18:26:52.172Z,24.65
2023-04-13T18:29:37.932Z,29.13
2023-04-13T18:32:23.582Z,12.85
2023-04-13T18:35:10.161Z,26.60
2023-04-13T18:37:55.786Z,16.25
2023-04-13T18:40:41.744Z,21.80
2023-04-13T18:43:27.076Z,16.70
2023-04-13T18:46:12.538Z,12.90
2023-04-13T18:48:57.894Z,9.82
2023-04-13T18:51:43.883Z,10.20
2023-04-13T18:54:29.485Z,9.02
2023-04-13T18:57:14.620Z,5.70
2023-04-13T18:59:59.839Z,6.22
2023-04-13T19:02:47.687Z,11.55
2023-04-13T19:05:35.515Z,11.95
2023-04-13T19:08:20.728Z,9.85
2023-04-13T19:11:05.916Z,11.30
2023-04-13T19:13:51.336Z,8.80
2023-04-13T19:16:37.960Z,12.23
2023-04-13T19:19:24.142Z,9.60
2023-04-13T19:22:09.258Z,6.65
2023-04-13T19:24:54.566Z,10.15
2023-04-13T19:27:44.587Z,7.68
2023-04-13T19:30:29.780Z,8.02
2023-04-13T19:33:15.115Z,7.75
2023-04-13T19:36:00.312Z,8.15
2023-04-13T19:38:45.638Z,12.18
2023-04-13T19:41:35.662Z,6.00
2023-04-13T19:44:20.712Z,6.80
2023-04-13T19:47:05.989Z,12.32
2023-04-13T19:49:51.217Z,10.55
2023-04-13T19:52:36.473Z,9.73
2023-04-13T19:55:21.906Z,11.30
2023-04-13T19:58:08.040Z,16.30
2023-04-13T20:00:54.380Z,16.67
2023-04-13T20:03:40.410Z,25.45
2023-04-13T20:06:27.266Z,8.75
2023-04-13T20:09:14.310Z,10.18
2023-04-13T20:11:59.306Z,8.30
2023-04-13T20:14:46.308Z,6.22
2023-04-13T20:17:31.377Z,9.40
2023-04-13T20:20:17.925Z,9.10
2023-04-13T20:23:03.292Z,10.15
2023-04-13T20:25:48.721Z,10.20
2023-04-13T20:28:33.962Z,14.32
2023-04-13T20:31:19.201Z,11.13
2023-04-13T20:34:04.638Z,8.18
2023-04-13T20:36:50.321Z,9.70
2023-04-13T20:39:36.793Z,11.98
2023-04-13T20:42:22.504Z,15.98
2023-04-13T20:45:14.135Z,11.38
2023-04-13T20:51:09.658Z,10.23
2023-04-13T20:53:55.484Z,15.45
2023-04-13T20:56:40.645Z,9.20
2023-04-13T20:59:26.069Z,11.27
2023-04-13T21:02:11.869Z,10.35
2023-04-13T21:04:57.329Z,12.43
2023-04-13T21:07:42.924Z,9.07
2023-04-13T21:10:28.286Z,10.18
2023-04-13T21:13:16.149Z,8.60
2023-04-13T21:16:01.575Z,7.70
2023-04-13T21:18:46.924Z,6.15
2023-04-13T21:21:32.814Z,6.85
2023-04-13T21:24:17.773Z,9.88
2023-04-13T21:27:03.161Z,10.35
2023-04-13T21:29:48.447Z,5.60
2023-04-13T21:32:33.670Z,7.30
2023-04-13T21:35:19.526Z,8.60
2023-04-13T21:38:05.947Z,8.90
2023-04-13T21:40:51.434Z,12.70
2023-04-13T21:43:36.529Z,8.32
2023-04-13T21:46:21.951Z,10.88
2023-04-13T21:49:07.489Z,4.68
2023-04-13T21:51:52.708Z,10.75
2023-04-13T21:54:38.101Z,10.60
2023-04-13T21:57:23.292Z,4.68
2023-04-13T22:00:09.383Z,13.93
2023-04-13T22:02:55.497Z,13.93
2023-04-13T22:05:41.008Z,9.68
2023-04-13T22:08:26.329Z,11.63
2023-04-13T22:11:11.925Z,9.70
2023-04-13T22:13:56.991Z,10.00
2023-04-13T22:16:42.480Z,7.22
2023-04-13T22:19:27.741Z,9.00
2023-04-13T22:22:13.111Z,5.82
2023-04-13T22:24:58.197Z,9.85
2023-04-13T22:27:43.964Z,5.63
2023-04-13T22:30:29.686Z,8.60
2023-04-13T22:33:15.317Z,7.97
2023-04-13T22:36:00.452Z,8.02
2023-04-13T22:38:49.810Z,6.07
2023-04-13T22:41:35.193Z,6.97
2023-04-13T22:44:20.599Z,14.57
2023-04-13T22:47:06.044Z,8.50
2023-04-13T22:49:51.554Z,13.13
2023-04-13T22:52:36.750Z,7.80
2023-04-13T22:55:22.073Z,10.77
2023-04-13T22:58:07.485Z,13.48
2023-04-13T23:00:52.778Z,12.82
2023-04-13T23:03:38.184Z,16.27
2023-04-13T23:06:23.479Z,16.60
2023-04-13T23:09:09.037Z,12.50
2023-04-13T23:11:54.361Z,17.20
2023-04-13T23:14:40.444Z,9.90
2023-04-13T23:17:25.505Z,10.57
2023-04-13T23:20:11.283Z,8.43
2023-04-13T23:22:56.594Z,10.23
2023-04-13T23:25:41.864Z,7.40
2023-04-13T23:28:27.091Z,5.25
2023-04-13T23:31:12.454Z,8.48
2023-04-13T23:33:57.710Z,12.55
2023-04-13T23:36:43.109Z,6.32
2023-04-13T23:39:28.344Z,9.90
2023-04-13T23:42:13.771Z,8.20
2023-04-13T23:44:59.048Z,8.77
2023-04-13T23:47:44.326Z,3.33
2023-04-13T23:50:29.568Z,4.30
2023-04-13T23:53:14.793Z,4.10
2023-04-13T23:56:00.268Z,8.18
2023-04-13T23:58:45.540Z,7.75
